This is the latest recevied weather packets stored in our database for station/object BARLOW-WX. If no packets are shown the sender has not sent any weather packets the latest 10 day(s).
| Time | Temp. | Humidity | Pressure | Rain* | Wind** | Luminosity | Snow |
|---|---|---|---|---|---|---|---|
| 1777001494 | 18.33° C | 61% | 979.6 hPa | 0 mm | - | - | - |
| 1777000579 | 18.89° C | 61% | 979.6 hPa | 0 mm | - | - | - |
| 1776999697 | 18.89° C | 61% | 979.6 hPa | 0 mm | - | - | - |
| 1776998784 | 19.44° C | 57% | 980.8 hPa | 0 mm | - | - | - |
| 1776997889 | 19.44° C | 60% | 980.3 hPa | 0 mm | - | - | - |
| 1776996980 | 19.44° C | 60% | 980.3 hPa | 0 mm | - | - | - |
| 1776996095 | 19.44° C | 60% | 980.3 hPa | 0 mm | - | - | - |
| 1776995183 | 20° C | 60% | 980.3 hPa | 0 mm | - | - | - |
| 1776994295 | 20.56° C | 60% | 980.3 hPa | 0 mm | - | - | - |
| 1776993383 | 20° C | 60% | 980.3 hPa | 0 mm | - | - | - |
| 1776992499 | 20.56° C | 60% | 980.3 hPa | 0 mm | - | - | - |
| 1776991575 | 21.11° C | 54% | 980.9 hPa | 0 mm | - | - | - |
| 1776990689 | 21.67° C | 56% | 981.2 hPa | 0 mm | - | - | - |
| 1776989782 | 21.67° C | 56% | 981.2 hPa | 0 mm | - | - | - |
| 1776988910 | 22.78° C | 56% | 981.2 hPa | 0 mm | - | - | - |
| 1776987984 | 23.33° C | 49% | 981.9 hPa | 0 mm | - | - | - |
| 1776987090 | 23.89° C | 50% | 981.6 hPa | 0 mm | - | - | - |
| 1776986185 | 23.89° C | 50% | 981.6 hPa | 0 mm | - | - | - |
| 1776985299 | 24.44° C | 50% | 981.6 hPa | 0 mm | - | - | - |
| 1776984383 | 25° C | 49% | 982 hPa | 0 mm | - | - | - |
| 1776983494 | 25° C | 49% | 982.5 hPa | 0 mm | - | - | - |
| 1776982584 | 25.56° C | 49% | 982.5 hPa | 0 mm | - | - | - |
| 1776981701 | 25.56° C | 49% | 982.5 hPa | 0 mm | - | - | - |
| 1776980783 | 25.56° C | 48% | 983.1 hPa | 0 mm | - | - | - |
| 1776979893 | 25.56° C | 48% | 983.6 hPa | 0 mm | - | - | - |
* Rain latest hour (hover to see other rain measurements)
** Current wind speed in m/s (hover to see current wind gust speed)